KWHP/WHP METAR and TAF weather

Enter ICAO airport designator
Station Type Date Time Source
KWHP METAR 2020/01/19 03:50 UTC NOAA

KWHP 190350Z 28005KT 10SM SKC 13/M03 A3019


Station Type Date Time Source
KWHP Decoded METAR 2020/01/19 03:50 UTC NOAA

Los Angeles, Whiteman Airport, CA, United States (KWHP) 34-15N 118-24W
Jan 18, 2020 - 10:50 PM EST / 2020.01.19 0350 UTC
Wind: from the W (280 degrees) at 6 MPH (5 KT):0
Visibility: 10 mile(s):0
Sky conditions: clear
Temperature: 55 F (13 C)
Dew Point: 26 F (-3 C)
Relative Humidity: 32%
Pressure (altimeter): 30.19 in. Hg (1022 hPa)
ob: KWHP 190350Z 28005KT 10SM SKC 13/M03 A3019
cycle: 4

Station Type Date Time Source
KWHP TAF UTC NOAA

Error!

Example: see airport list